Time;durP1;ratioP1;P1;durP2;ratioP2;P2;SDS_P1;SDS_P2;PMS_P1;PMS_P2;Temp;Humidity;BMP_temperature;BMP_pressure;BME280_temperature;BME280_humidity;BME280_pressure;Samples;Min_cycle;Max_cycle;Signal;HPM_P1;HPM_P2
2022/11/25 00:00:50;;;;;;;87.30;40.50;;;;;;;;;;4986169;28;20200;-76
2022/11/25 00:03:16;;;;;;;89.20;40.30;;;;;;;;;;5002387;28;20230;-77
2022/11/25 00:05:42;;;;;;;83.77;38.97;;;;;;;;;;5012737;28;20208;-76
2022/11/25 00:08:08;;;;;;;101.37;42.90;;;;;;;;;;4998357;28;20224;-75
2022/11/25 00:10:35;;;;;;;99.93;42.47;;;;;;;;;;4995059;28;20186;-77
2022/11/25 00:13:01;;;;;;;101.57;41.80;;;;;;;;;;5011969;28;20210;-76
2022/11/25 00:15:27;;;;;;;103.73;43.50;;;;;;;;;;4989341;28;20225;-77
2022/11/25 00:17:53;;;;;;;99.77;42.20;;;;;;;;;;4990395;28;20180;-77
2022/11/25 00:20:20;;;;;;;103.33;43.20;;;;;;;;;;4992819;28;20545;-76
2022/11/25 00:22:46;;;;;;;108.37;45.57;;;;;;;;;;4986454;28;20250;-77
2022/11/25 00:25:12;;;;;;;100.60;44.87;;;;;;;;;;5003474;28;20203;-76
2022/11/25 00:27:38;;;;;;;111.97;44.93;;;;;;;;;;4998699;28;20191;-77
2022/11/25 00:30:04;;;;;;;104.47;44.87;;;;;;;;;;4998485;28;20256;-76
2022/11/25 00:32:31;;;;;;;105.87;46.10;;;;;;;;;;4995118;28;20596;-76
2022/11/25 00:34:57;;;;;;;112.10;44.43;;;;;;;;;;4997539;28;20226;-77
2022/11/25 00:37:23;;;;;;;110.83;46.03;;;;;;;;;;5004929;28;20210;-76
2022/11/25 00:39:49;;;;;;;115.53;46.00;;;;;;;;;;5009892;28;20193;-76
2022/11/25 00:44:59;;;;;;;107.90;45.27;;;;;;;;;;5008664;28;20231;-77
2022/11/25 00:47:25;;;;;;;108.50;44.17;;;;;;;;;;4997180;28;20179;-76
2022/11/25 00:49:53;;;;;;;102.63;44.27;;;;;;;;;;4995160;28;20174;-77
2022/11/25 00:52:20;;;;;;;106.83;44.80;;;;;;;;;;5012969;28;20194;-77
2022/11/25 00:54:47;;;;;;;105.40;43.57;;;;;;;;;;5013849;28;20191;-77
2022/11/25 00:57:14;;;;;;;115.23;46.20;;;;;;;;;;5013473;28;20183;-77
2022/11/25 00:59:40;;;;;;;113.47;47.10;;;;;;;;;;4996197;28;20202;-77
2022/11/25 01:02:07;;;;;;;105.13;45.40;;;;;;;;;;4998303;28;20175;-76
2022/11/25 01:04:33;;;;;;;108.93;44.23;;;;;;;;;;5004966;28;20216;-77
2022/11/25 01:07:01;;;;;;;115.57;45.20;;;;;;;;;;5002914;28;20198;-77
2022/11/25 01:09:27;;;;;;;111.27;46.10;;;;;;;;;;5004225;28;20226;-78
2022/11/25 01:11:53;;;;;;;95.13;41.67;;;;;;;;;;5015618;28;20189;-77
2022/11/25 01:14:20;;;;;;;91.97;39.50;;;;;;;;;;5005337;28;20239;-77
2022/11/25 01:16:47;;;;;;;72.23;35.37;;;;;;;;;;4993198;28;20170;-78
2022/11/25 01:19:13;;;;;;;80.60;37.23;;;;;;;;;;5004500;28;20186;-76
2022/11/25 01:21:39;;;;;;;80.33;36.00;;;;;;;;;;5011277;28;20616;-77
2022/11/25 01:24:06;;;;;;;77.20;36.57;;;;;;;;;;4985923;28;20245;-78
2022/11/25 01:26:32;;;;;;;76.20;34.80;;;;;;;;;;5014043;28;20172;-77
2022/11/25 01:29:03;;;;;;;74.27;34.57;;;;;;;;;;5006216;28;20610;-77
2022/11/25 01:31:30;;;;;;;72.60;34.60;;;;;;;;;;5009574;28;20209;-77
2022/11/25 01:33:58;;;;;;;78.20;38.53;;;;;;;;;;5012880;28;20210;-77
2022/11/25 01:36:24;;;;;;;74.33;35.90;;;;;;;;;;5008490;28;20218;-76
2022/11/25 01:38:51;;;;;;;76.10;37.70;;;;;;;;;;5013669;28;20261;-77
2022/11/25 01:41:18;;;;;;;78.97;37.70;;;;;;;;;;4992489;28;20217;-77
2022/11/25 01:44:02;;;;;;;79.67;39.57;;;;;;;;;;5001103;28;20219;-77
2022/11/25 01:46:30;;;;;;;76.17;37.50;;;;;;;;;;5000457;28;20183;-77
2022/11/25 01:48:58;;;;;;;84.77;39.97;;;;;;;;;;5004855;28;20186;-77
2022/11/25 01:51:29;;;;;;;89.47;40.17;;;;;;;;;;5012961;28;20190;-77
2022/11/25 01:53:57;;;;;;;91.33;42.60;;;;;;;;;;4995697;28;20190;-77
2022/11/25 01:56:25;;;;;;;90.60;44.83;;;;;;;;;;5011608;28;20322;-78
2022/11/25 01:58:51;;;;;;;90.40;42.87;;;;;;;;;;5011296;28;20178;-77
2022/11/25 02:01:17;;;;;;;90.47;43.30;;;;;;;;;;5008049;28;20237;-77
2022/11/25 02:03:45;;;;;;;93.13;45.30;;;;;;;;;;5012009;28;20194;-77
2022/11/25 02:06:14;;;;;;;84.27;41.53;;;;;;;;;;5009736;28;20212;-77
2022/11/25 02:08:42;;;;;;;92.30;43.70;;;;;;;;;;4995904;28;20264;-77
2022/11/25 02:11:08;;;;;;;89.30;42.77;;;;;;;;;;5013575;28;20189;-77
2022/11/25 02:13:35;;;;;;;89.23;41.33;;;;;;;;;;5011552;28;20175;-78
2022/11/25 02:16:01;;;;;;;97.77;43.40;;;;;;;;;;5007723;28;20180;-77
2022/11/25 02:18:27;;;;;;;86.20;42.53;;;;;;;;;;5017170;28;20196;-77
2022/11/25 02:20:53;;;;;;;86.07;42.50;;;;;;;;;;5012583;28;20202;-77
2022/11/25 02:23:34;;;;;;;92.37;43.63;;;;;;;;;;5003989;28;20253;-77
2022/11/25 02:26:00;;;;;;;99.30;43.57;;;;;;;;;;4993040;28;20186;-77
2022/11/25 02:28:29;;;;;;;101.73;45.33;;;;;;;;;;5009655;28;20547;-77
2022/11/25 02:30:55;;;;;;;105.40;45.53;;;;;;;;;;5010793;28;20179;-77
2022/11/25 02:33:22;;;;;;;108.77;46.53;;;;;;;;;;5009167;28;20194;-77
2022/11/25 02:35:55;;;;;;;115.40;46.93;;;;;;;;;;4996448;28;20187;-77
2022/11/25 02:38:38;;;;;;;115.40;48.93;;;;;;;;;;4996505;28;20187;-77
2022/11/25 02:41:04;;;;;;;124.53;49.90;;;;;;;;;;5008670;28;20183;-77
2022/11/25 02:43:31;;;;;;;125.40;50.57;;;;;;;;;;5008638;28;20671;-76
2022/11/25 02:46:03;;;;;;;126.47;51.20;;;;;;;;;;4990617;28;20358;-77
2022/11/25 02:48:30;;;;;;;122.63;49.47;;;;;;;;;;4998191;28;20183;-77
2022/11/25 02:50:57;;;;;;;117.60;50.53;;;;;;;;;;5011370;28;20264;-77
2022/11/25 02:53:23;;;;;;;118.30;50.00;;;;;;;;;;5011547;28;20179;-77
2022/11/25 02:55:49;;;;;;;121.10;49.60;;;;;;;;;;4998534;28;20206;-78
2022/11/25 02:58:15;;;;;;;113.97;48.40;;;;;;;;;;4998878;28;20187;-77
2022/11/25 03:00:41;;;;;;;114.00;46.07;;;;;;;;;;4995391;28;20194;-77
2022/11/25 03:03:08;;;;;;;108.40;46.30;;;;;;;;;;5009963;28;20647;-77
2022/11/25 03:05:34;;;;;;;102.97;43.73;;;;;;;;;;4995554;28;20258;-77
2022/11/25 03:08:00;;;;;;;110.20;46.63;;;;;;;;;;5011219;28;20265;-77
2022/11/25 03:10:26;;;;;;;95.70;42.50;;;;;;;;;;4999737;28;20187;-77
2022/11/25 03:12:52;;;;;;;99.37;42.77;;;;;;;;;;5000501;28;20333;-76
2022/11/25 03:15:19;;;;;;;112.07;45.37;;;;;;;;;;5011128;28;20184;-77
2022/11/25 03:17:45;;;;;;;100.17;40.70;;;;;;;;;;5004206;28;20179;-77
2022/11/25 03:20:12;;;;;;;104.93;42.30;;;;;;;;;;4988660;28;20184;-77
2022/11/25 03:22:38;;;;;;;94.50;40.17;;;;;;;;;;5007769;28;20231;-77
2022/11/25 03:25:05;;;;;;;102.90;43.50;;;;;;;;;;5003284;28;20215;-77
2022/11/25 03:27:31;;;;;;;111.83;44.87;;;;;;;;;;4997279;28;20663;-78
2022/11/25 03:29:58;;;;;;;97.13;42.87;;;;;;;;;;4994731;28;20192;-76
2022/11/25 03:32:24;;;;;;;84.90;39.00;;;;;;;;;;4998034;28;20932;-77
2022/11/25 03:34:50;;;;;;;91.00;41.23;;;;;;;;;;5008371;28;20183;-77
2022/11/25 03:37:16;;;;;;;106.27;44.93;;;;;;;;;;5008091;28;20179;-78
2022/11/25 03:39:42;;;;;;;92.63;41.87;;;;;;;;;;4989780;28;20199;-77
2022/11/25 03:42:08;;;;;;;96.23;42.57;;;;;;;;;;4993289;28;20651;-77
2022/11/25 03:44:34;;;;;;;89.43;42.43;;;;;;;;;;4994051;28;20199;-77
2022/11/25 03:47:00;;;;;;;87.40;40.10;;;;;;;;;;5009926;28;20916;-77
2022/11/25 03:49:26;;;;;;;92.93;40.50;;;;;;;;;;5008590;28;20187;-77
2022/11/25 03:51:52;;;;;;;98.47;41.97;;;;;;;;;;5006811;28;20189;-78
2022/11/25 03:54:18;;;;;;;83.70;40.03;;;;;;;;;;5016926;28;20202;-77
2022/11/25 03:56:44;;;;;;;96.23;43.07;;;;;;;;;;4994077;28;20172;-78
2022/11/25 03:59:11;;;;;;;106.93;43.70;;;;;;;;;;4992134;28;20315;-77
2022/11/25 04:01:37;;;;;;;89.13;39.67;;;;;;;;;;5003876;28;20413;-77
2022/11/25 04:04:03;;;;;;;98.03;40.93;;;;;;;;;;5001573;28;20214;-77
2022/11/25 04:06:30;;;;;;;101.03;39.77;;;;;;;;;;5007984;28;20183;-77
2022/11/25 04:08:57;;;;;;;105.67;40.50;;;;;;;;;;4994395;28;20258;-77
2022/11/25 04:12:45;;;;;;;94.57;39.40;;;;;;;;;;5015507;28;20229;-77
2022/11/25 04:14:11;;;;;;;104.73;39.80;;;;;;;;;;5008539;28;20186;-78
2022/11/25 04:16:37;;;;;;;100.33;38.93;;;;;;;;;;4996278;28;20183;-77
2022/11/25 04:19:03;;;;;;;100.87;38.87;;;;;;;;;;5021207;28;20522;-76
2022/11/25 04:21:30;;;;;;;109.43;40.87;;;;;;;;;;4998561;28;20806;-77
2022/11/25 04:23:56;;;;;;;100.30;40.13;;;;;;;;;;5012436;28;20734;-77
2022/11/25 04:26:41;;;;;;;88.60;36.83;;;;;;;;;;5013658;28;20203;-77
2022/11/25 04:29:07;;;;;;;103.73;38.87;;;;;;;;;;5003583;28;20259;-77
2022/11/25 04:31:33;;;;;;;102.37;37.80;;;;;;;;;;5007575;28;20186;-77
2022/11/25 04:33:59;;;;;;;97.83;38.07;;;;;;;;;;5012653;28;20177;-77
2022/11/25 04:36:25;;;;;;;98.00;38.73;;;;;;;;;;4981439;28;20732;-78
2022/11/25 04:38:51;;;;;;;96.50;39.37;;;;;;;;;;5013328;28;20171;-77
2022/11/25 04:41:17;;;;;;;101.47;39.53;;;;;;;;;;5012830;28;20726;-77
2022/11/25 04:43:43;;;;;;;102.17;39.47;;;;;;;;;;5009434;28;20237;-77
2022/11/25 04:46:12;;;;;;;92.63;38.70;;;;;;;;;;5014597;28;20195;-77
2022/11/25 04:48:38;;;;;;;101.97;39.50;;;;;;;;;;5012177;28;20189;-77
2022/11/25 04:51:04;;;;;;;96.70;39.23;;;;;;;;;;5012256;28;20194;-77
2022/11/25 04:53:30;;;;;;;96.50;38.33;;;;;;;;;;5012623;28;20179;-77
2022/11/25 04:55:56;;;;;;;95.13;37.93;;;;;;;;;;5002607;28;20215;-77
2022/11/25 05:01:07;;;;;;;84.07;35.97;;;;;;;;;;5002539;28;20254;-77
2022/11/25 05:03:33;;;;;;;83.43;35.20;;;;;;;;;;4998887;28;20639;-76
2022/11/25 05:05:59;;;;;;;101.70;39.27;;;;;;;;;;4997281;28;20211;-77
2022/11/25 05:08:25;;;;;;;88.70;37.13;;;;;;;;;;5013794;28;20217;-77
2022/11/25 05:10:51;;;;;;;109.00;38.67;;;;;;;;;;5004060;28;20232;-77
2022/11/25 05:13:17;;;;;;;105.13;39.67;;;;;;;;;;4990814;28;20285;-77
2022/11/25 05:15:43;;;;;;;95.13;38.17;;;;;;;;;;5009882;28;20338;-77
2022/11/25 05:18:09;;;;;;;106.13;40.63;;;;;;;;;;5021469;28;20711;-77
2022/11/25 05:20:35;;;;;;;105.87;41.47;;;;;;;;;;4996033;28;20190;-76
2022/11/25 05:23:01;;;;;;;117.47;41.47;;;;;;;;;;5003152;28;20285;-77
2022/11/25 05:25:27;;;;;;;118.30;42.90;;;;;;;;;;5001514;28;20619;-77
2022/11/25 05:27:53;;;;;;;105.13;39.93;;;;;;;;;;4999490;28;20234;-77
2022/11/25 05:30:19;;;;;;;103.93;42.17;;;;;;;;;;5012105;28;20224;-77
2022/11/25 05:32:45;;;;;;;99.83;38.87;;;;;;;;;;4996100;28;20174;-77
2022/11/25 05:35:11;;;;;;;96.73;39.03;;;;;;;;;;5011615;28;20187;-77
2022/11/25 05:37:37;;;;;;;99.83;41.53;;;;;;;;;;5010540;28;20191;-78
2022/11/25 05:40:03;;;;;;;93.83;40.73;;;;;;;;;;5008433;28;20262;-78
2022/11/25 05:42:29;;;;;;;105.77;40.57;;;;;;;;;;4997434;28;20195;-77
2022/11/25 05:44:55;;;;;;;101.67;42.83;;;;;;;;;;5014678;28;20191;-77
2022/11/25 05:47:21;;;;;;;104.43;42.17;;;;;;;;;;5003139;28;20195;-77
2022/11/25 05:49:48;;;;;;;93.27;41.77;;;;;;;;;;5005934;28;20201;-77
2022/11/25 05:52:13;;;;;;;93.33;40.20;;;;;;;;;;5009007;28;20191;-77
2022/11/25 05:54:40;;;;;;;107.20;42.37;;;;;;;;;;4989679;28;20201;-78
2022/11/25 05:57:06;;;;;;;105.93;41.27;;;;;;;;;;4989956;28;20186;-77
2022/11/25 05:59:31;;;;;;;110.37;42.67;;;;;;;;;;4998697;28;20667;-77
2022/11/25 06:01:58;;;;;;;110.63;41.33;;;;;;;;;;4990466;28;20191;-77
2022/11/25 06:04:24;;;;;;;104.87;40.93;;;;;;;;;;5008041;28;20211;-77
2022/11/25 06:06:50;;;;;;;89.63;40.47;;;;;;;;;;4995667;28;20183;-77
2022/11/25 06:09:16;;;;;;;98.37;41.33;;;;;;;;;;4985309;28;20179;-78
2022/11/25 06:11:42;;;;;;;102.00;41.23;;;;;;;;;;5000501;28;20266;-78
2022/11/25 06:14:08;;;;;;;90.97;40.67;;;;;;;;;;4989955;28;20277;-77
2022/11/25 06:16:34;;;;;;;104.33;41.00;;;;;;;;;;4986132;28;20199;-77
2022/11/25 06:19:04;;;;;;;106.13;41.67;;;;;;;;;;5020314;28;20711;-77
2022/11/25 06:21:30;;;;;;;95.53;40.57;;;;;;;;;;5013144;28;20195;-77
2022/11/25 06:23:56;;;;;;;103.20;41.50;;;;;;;;;;5001223;28;20257;-77
2022/11/25 06:26:22;;;;;;;109.77;42.37;;;;;;;;;;5013485;28;20612;-77
2022/11/25 06:28:51;;;;;;;104.00;42.27;;;;;;;;;;4987600;28;20588;-77
2022/11/25 06:31:19;;;;;;;110.67;41.87;;;;;;;;;;4988622;28;20187;-76
2022/11/25 06:33:49;;;;;;;103.80;40.93;;;;;;;;;;5002595;28;20188;-77
2022/11/25 06:36:18;;;;;;;111.87;42.50;;;;;;;;;;5004080;28;20687;-77
2022/11/25 06:38:44;;;;;;;113.30;43.00;;;;;;;;;;5007081;28;20175;-77
2022/11/25 06:41:11;;;;;;;109.10;43.10;;;;;;;;;;5009420;28;20277;-77
2022/11/25 06:43:37;;;;;;;97.97;40.30;;;;;;;;;;4982615;28;20246;-78
2022/11/25 06:46:07;;;;;;;99.93;40.10;;;;;;;;;;5002122;28;20211;-77
2022/11/25 06:48:33;;;;;;;106.63;39.77;;;;;;;;;;4986042;28;20195;-75
2022/11/25 06:51:00;;;;;;;89.73;38.70;;;;;;;;;;5013070;28;20190;-76
2022/11/25 06:53:26;;;;;;;97.43;39.67;;;;;;;;;;4992848;28;20210;-77
2022/11/25 06:56:21;;;;;;;91.60;40.03;;;;;;;;;;4990733;28;20226;-77
2022/11/25 06:58:48;;;;;;;96.07;39.00;;;;;;;;;;4986385;28;20206;-76
2022/11/25 07:01:19;;;;;;;92.37;39.43;;;;;;;;;;4989788;28;20714;-76
2022/11/25 07:03:46;;;;;;;105.07;40.37;;;;;;;;;;4997572;28;20198;-77
2022/11/25 07:06:13;;;;;;;99.97;40.83;;;;;;;;;;4998909;28;20659;-76
2022/11/25 07:08:40;;;;;;;109.13;41.30;;;;;;;;;;5004592;28;20233;-77
2022/11/25 07:11:26;;;;;;;94.23;39.13;;;;;;;;;;5007238;28;20768;-77
2022/11/25 07:13:53;;;;;;;100.07;40.27;;;;;;;;;;5000049;28;20253;-76
2022/11/25 07:16:19;;;;;;;91.77;39.83;;;;;;;;;;4991032;28;20183;-76
2022/11/25 07:18:45;;;;;;;105.37;41.17;;;;;;;;;;4998549;28;20214;-78
2022/11/25 07:21:12;;;;;;;103.93;41.83;;;;;;;;;;4984204;28;20207;-77
2022/11/25 07:23:39;;;;;;;100.10;41.83;;;;;;;;;;4981294;28;20313;-76
2022/11/25 07:26:06;;;;;;;98.17;41.73;;;;;;;;;;5009214;28;20203;-77
2022/11/25 07:28:32;;;;;;;102.13;41.20;;;;;;;;;;5010197;28;20199;-77
2022/11/25 07:31:05;;;;;;;125.40;45.03;;;;;;;;;;5006791;28;20273;-77
2022/11/25 07:33:31;;;;;;;115.03;43.93;;;;;;;;;;4994281;28;20182;-77
2022/11/25 07:36:00;;;;;;;127.37;44.07;;;;;;;;;;5015646;28;20511;-76
2022/11/25 07:38:27;;;;;;;124.77;44.13;;;;;;;;;;4990282;28;20632;-77
2022/11/25 07:40:53;;;;;;;128.80;47.50;;;;;;;;;;5009822;28;20186;-77
2022/11/25 07:43:19;;;;;;;119.63;45.60;;;;;;;;;;5009898;28;20198;-77
2022/11/25 07:45:45;;;;;;;133.70;47.13;;;;;;;;;;4993456;28;20203;-76
2022/11/25 07:48:11;;;;;;;129.70;48.90;;;;;;;;;;5007594;28;20215;-76
2022/11/25 07:50:37;;;;;;;122.07;46.20;;;;;;;;;;4990300;28;20231;-77
2022/11/25 07:53:03;;;;;;;152.40;70.53;;;;;;;;;;4986214;28;20674;-76
2022/11/25 07:55:29;;;;;;;127.67;53.07;;;;;;;;;;4989211;28;20325;-76
2022/11/25 07:57:55;;;;;;;115.27;45.73;;;;;;;;;;5010847;28;20183;-77
2022/11/25 08:00:21;;;;;;;109.60;43.77;;;;;;;;;;5014269;28;20179;-77
2022/11/25 08:02:47;;;;;;;105.50;44.27;;;;;;;;;;4986960;28;20626;-77
2022/11/25 08:05:13;;;;;;;99.73;43.70;;;;;;;;;;5007930;28;20293;-76
2022/11/25 08:07:39;;;;;;;100.53;42.90;;;;;;;;;;5009437;28;20198;-76
2022/11/25 08:10:05;;;;;;;98.33;42.43;;;;;;;;;;4990124;28;20179;-78
2022/11/25 08:12:32;;;;;;;98.43;42.43;;;;;;;;;;5007363;28;20179;-77
2022/11/25 08:14:58;;;;;;;102.83;43.47;;;;;;;;;;5007835;28;20973;-75
2022/11/25 08:17:24;;;;;;;96.90;41.37;;;;;;;;;;5008546;28;20179;-76
2022/11/25 08:19:50;;;;;;;93.63;41.90;;;;;;;;;;5009665;28;20528;-75
2022/11/25 08:22:16;;;;;;;96.50;42.80;;;;;;;;;;5009443;28;20218;-76
2022/11/25 08:24:42;;;;;;;91.63;40.33;;;;;;;;;;4991391;28;20198;-77
2022/11/25 08:27:08;;;;;;;96.23;41.20;;;;;;;;;;5010411;28;20584;-77
2022/11/25 08:29:34;;;;;;;101.63;43.90;;;;;;;;;;4987874;28;20266;-75
2022/11/25 08:32:00;;;;;;;99.73;43.43;;;;;;;;;;4990347;28;20194;-76
2022/11/25 08:34:26;;;;;;;95.83;43.07;;;;;;;;;;5010542;28;20197;-76
2022/11/25 08:36:52;;;;;;;97.27;43.37;;;;;;;;;;5009425;28;20193;-75
2022/11/25 08:39:19;;;;;;;94.87;45.20;;;;;;;;;;5007843;28;20184;-76
2022/11/25 08:41:45;;;;;;;92.77;42.70;;;;;;;;;;5007916;28;20279;-76
2022/11/25 08:44:12;;;;;;;90.43;43.80;;;;;;;;;;5009680;28;20203;-76
2022/11/25 08:46:38;;;;;;;94.17;44.30;;;;;;;;;;5010404;28;20195;-76
2022/11/25 08:49:05;;;;;;;95.30;44.77;;;;;;;;;;5010535;28;20187;-76
2022/11/25 08:51:33;;;;;;;98.53;46.13;;;;;;;;;;5014169;28;20188;-75
2022/11/25 08:54:00;;;;;;;95.03;43.03;;;;;;;;;;5010401;28;20194;-76
2022/11/25 08:56:26;;;;;;;94.43;44.17;;;;;;;;;;4998342;28;20198;-77
2022/11/25 08:58:53;;;;;;;99.70;45.97;;;;;;;;;;5000958;28;20242;-76
2022/11/25 09:01:20;;;;;;;105.80;45.23;;;;;;;;;;5012357;28;20186;-76
2022/11/25 09:03:47;;;;;;;96.57;43.37;;;;;;;;;;5010761;28;20201;-76
2022/11/25 09:06:14;;;;;;;94.10;44.23;;;;;;;;;;4996895;28;20217;-75
2022/11/25 09:08:40;;;;;;;99.63;45.50;;;;;;;;;;4988317;28;20195;-76
2022/11/25 09:11:06;;;;;;;92.17;42.93;;;;;;;;;;5014188;28;20270;-77
2022/11/25 09:13:32;;;;;;;102.80;44.83;;;;;;;;;;5013366;28;20198;-76
2022/11/25 09:16:00;;;;;;;98.77;43.77;;;;;;;;;;5010976;28;20191;-77
2022/11/25 09:18:28;;;;;;;95.53;42.87;;;;;;;;;;5013723;28;20199;-76
2022/11/25 09:20:55;;;;;;;87.03;41.67;;;;;;;;;;5012833;28;20179;-76
2022/11/25 09:23:22;;;;;;;97.97;42.27;;;;;;;;;;4998812;28;20286;-76
2022/11/25 09:25:55;;;;;;;98.00;42.20;;;;;;;;;;5018288;28;20210;-76
2022/11/25 09:28:22;;;;;;;96.23;41.63;;;;;;;;;;5015590;28;20218;-75
2022/11/25 09:30:48;;;;;;;78.47;37.67;;;;;;;;;;5002982;28;20187;-76
2022/11/25 09:33:14;;;;;;;94.57;39.23;;;;;;;;;;5006957;28;20279;-76
2022/11/25 09:35:40;;;;;;;80.27;37.27;;;;;;;;;;4989090;28;20785;-75
2022/11/25 09:38:06;;;;;;;84.13;38.97;;;;;;;;;;4991789;28;20219;-75
2022/11/25 09:40:53;;;;;;;90.03;40.10;;;;;;;;;;4989170;28;20285;-75
2022/11/25 09:46:44;;;;;;;76.07;37.13;;;;;;;;;;4929109;29;20201;-77
2022/11/25 09:49:19;;;;;;;78.53;37.37;;;;;;;;;;4935578;29;20238;-77
2022/11/25 09:51:54;;;;;;;79.90;38.67;;;;;;;;;;4918842;29;20177;-77
2022/11/25 09:54:29;;;;;;;87.57;37.97;;;;;;;;;;4915254;29;20191;-77
2022/11/25 09:57:18;;;;;;;84.77;38.10;;;;;;;;;;4944401;29;20188;-78
2022/11/25 09:59:52;;;;;;;80.83;37.20;;;;;;;;;;4961797;29;20173;-76
2022/11/25 10:02:27;;;;;;;84.27;39.00;;;;;;;;;;4936548;29;20197;-78
2022/11/25 10:05:03;;;;;;;83.33;37.77;;;;;;;;;;4936589;29;20220;-77
2022/11/25 10:07:34;;;;;;;85.30;39.23;;;;;;;;;;4937858;29;20198;-77
2022/11/25 10:10:03;;;;;;;82.97;40.77;;;;;;;;;;4964608;29;20198;-77
2022/11/25 10:12:32;;;;;;;88.57;41.10;;;;;;;;;;4957272;29;20200;-75
2022/11/25 10:15:00;;;;;;;80.57;39.97;;;;;;;;;;4958674;29;20205;-76
2022/11/25 10:17:38;;;;;;;90.37;40.10;;;;;;;;;;4928739;29;20616;-77
2022/11/25 10:20:10;;;;;;;98.03;42.00;;;;;;;;;;4946177;28;20204;-78
2022/11/25 10:22:40;;;;;;;86.20;39.83;;;;;;;;;;4993330;28;21422;-77
2022/11/25 10:25:12;;;;;;;82.90;40.07;;;;;;;;;;4992376;28;20211;-77
2022/11/25 10:27:44;;;;;;;88.33;39.33;;;;;;;;;;4993579;28;20179;-77
2022/11/25 10:30:27;;;;;;;90.47;41.03;;;;;;;;;;4987728;28;20239;-77
2022/11/25 10:32:53;;;;;;;85.53;40.33;;;;;;;;;;4969697;28;20250;-75
2022/11/25 10:35:35;;;;;;;87.20;38.13;;;;;;;;;;4984806;28;20274;-77
2022/11/25 10:38:02;;;;;;;83.50;39.63;;;;;;;;;;4988031;28;20183;-76
2022/11/25 10:40:29;;;;;;;84.47;37.80;;;;;;;;;;4990139;28;20190;-76
2022/11/25 10:42:55;;;;;;;85.93;40.17;;;;;;;;;;4989627;28;20178;-77
2022/11/25 10:45:25;;;;;;;93.13;40.23;;;;;;;;;;4991248;28;20204;-77
2022/11/25 10:47:51;;;;;;;87.97;40.03;;;;;;;;;;4968586;28;20254;-77
2022/11/25 10:50:20;;;;;;;92.57;41.20;;;;;;;;;;4991727;28;20656;-78
2022/11/25 10:52:50;;;;;;;78.13;38.97;;;;;;;;;;4990816;28;20192;-77
2022/11/25 10:55:17;;;;;;;81.87;39.10;;;;;;;;;;4991869;28;20192;-77
2022/11/25 10:57:43;;;;;;;70.17;37.10;;;;;;;;;;4991123;28;20259;-79
2022/11/25 11:00:24;;;;;;;77.93;36.93;;;;;;;;;;4990452;28;20188;-77
2022/11/25 11:02:50;;;;;;;80.70;38.40;;;;;;;;;;4991259;28;20195;-76
2022/11/25 11:05:19;;;;;;;77.90;37.13;;;;;;;;;;4987653;28;20773;-77
2022/11/25 11:07:45;;;;;;;88.77;41.27;;;;;;;;;;4995572;28;20191;-77
2022/11/25 11:10:16;;;;;;;69.40;37.33;;;;;;;;;;4990456;28;20179;-77
2022/11/25 11:13:02;;;;;;;78.13;38.13;;;;;;;;;;4989334;28;20175;-76
2022/11/25 11:15:40;;;;;;;74.87;40.17;;;;;;;;;;4976707;28;20191;-77
2022/11/25 11:18:19;;;;;;;77.43;40.20;;;;;;;;;;4988189;28;20187;-76
2022/11/25 11:20:46;;;;;;;73.00;38.20;;;;;;;;;;4989499;28;20196;-78
2022/11/25 11:23:13;;;;;;;76.10;39.03;;;;;;;;;;4994684;28;20318;-77
2022/11/25 11:25:43;;;;;;;82.20;39.07;;;;;;;;;;4991296;28;20229;-78
2022/11/25 11:28:27;;;;;;;76.03;38.33;;;;;;;;;;5010513;28;20198;-78
2022/11/25 11:30:59;;;;;;;77.13;37.43;;;;;;;;;;4988438;28;20179;-77
2022/11/25 11:33:43;;;;;;;85.73;39.77;;;;;;;;;;5012894;28;20573;-77
2022/11/25 11:36:22;;;;;;;84.13;40.37;;;;;;;;;;4989091;28;20206;-76
2022/11/25 11:38:48;;;;;;;75.07;39.67;;;;;;;;;;4993918;28;20191;-75
2022/11/25 11:41:14;;;;;;;83.97;39.67;;;;;;;;;;5012747;28;20198;-75
2022/11/25 11:44:03;;;;;;;80.70;41.40;;;;;;;;;;4989486;28;20245;-75
2022/11/25 11:46:48;;;;;;;91.40;42.80;;;;;;;;;;4995567;28;20280;-77
2022/11/25 11:49:29;;;;;;;87.27;42.03;;;;;;;;;;5008567;28;20194;-76
2022/11/25 11:52:00;;;;;;;92.47;41.77;;;;;;;;;;5007966;28;20171;-76
2022/11/25 11:54:26;;;;;;;83.20;40.37;;;;;;;;;;4992627;28;20182;-77
2022/11/25 11:57:16;;;;;;;91.83;41.57;;;;;;;;;;4988062;28;20194;-76
2022/11/25 11:59:52;;;;;;;99.83;42.03;;;;;;;;;;5014523;28;20191;-75
2022/11/25 12:02:21;;;;;;;90.80;42.57;;;;;;;;;;4987802;28;20194;-75
2022/11/25 12:05:06;;;;;;;97.53;44.40;;;;;;;;;;5009619;28;20215;-76
2022/11/25 12:07:47;;;;;;;96.80;45.33;;;;;;;;;;4987019;28;20183;-78
2022/11/25 12:10:13;;;;;;;101.27;46.83;;;;;;;;;;5000280;28;20190;-78
2022/11/25 12:12:48;;;;;;;99.43;46.13;;;;;;;;;;4992322;28;20205;-77
2022/11/25 12:15:18;;;;;;;99.50;46.83;;;;;;;;;;4988248;28;20202;-76
2022/11/25 12:17:50;;;;;;;89.13;43.83;;;;;;;;;;4990079;28;20194;-77
2022/11/25 12:20:20;;;;;;;93.20;45.87;;;;;;;;;;4998599;28;20620;-77
2022/11/25 12:22:50;;;;;;;101.83;46.83;;;;;;;;;;5021770;28;20281;-78
2022/11/25 12:25:23;;;;;;;91.47;44.17;;;;;;;;;;4990158;28;20219;-77
2022/11/25 12:27:53;;;;;;;93.87;45.00;;;;;;;;;;5008398;28;20187;-78
2022/11/25 12:30:19;;;;;;;97.37;47.20;;;;;;;;;;4990881;28;20187;-78
2022/11/25 12:32:48;;;;;;;86.00;44.70;;;;;;;;;;5013478;28;20195;-77
2022/11/25 12:35:18;;;;;;;93.57;46.87;;;;;;;;;;5011088;28;20195;-77
2022/11/25 12:37:46;;;;;;;97.47;47.00;;;;;;;;;;5003368;28;20223;-78
2022/11/25 12:40:12;;;;;;;91.87;47.10;;;;;;;;;;4994267;28;20179;-78
2022/11/25 12:42:40;;;;;;;91.63;46.33;;;;;;;;;;5012296;28;20258;-77
2022/11/25 12:45:18;;;;;;;100.03;46.93;;;;;;;;;;4991625;28;20257;-77
2022/11/25 12:47:44;;;;;;;107.53;47.57;;;;;;;;;;5017707;28;20195;-77
2022/11/25 12:50:17;;;;;;;101.13;47.97;;;;;;;;;;5013301;28;20262;-77
2022/11/25 12:52:53;;;;;;;96.47;46.40;;;;;;;;;;5003712;28;20192;-77
2022/11/25 12:55:20;;;;;;;118.60;49.07;;;;;;;;;;4995294;28;20199;-79
2022/11/25 12:57:52;;;;;;;90.40;45.17;;;;;;;;;;5012126;28;20650;-77
2022/11/25 13:00:25;;;;;;;93.50;44.50;;;;;;;;;;4992774;28;20552;-79
2022/11/25 13:03:09;;;;;;;102.47;46.97;;;;;;;;;;5011926;28;20555;-76
2022/11/25 13:05:48;;;;;;;91.97;45.87;;;;;;;;;;5011124;28;20572;-77
2022/11/25 13:08:33;;;;;;;95.20;45.00;;;;;;;;;;5015365;28;20191;-77
2022/11/25 13:11:18;;;;;;;102.67;48.47;;;;;;;;;;5007157;28;20603;-77
2022/11/25 13:14:10;;;;;;;133.43;53.83;;;;;;;;;;5000211;28;20210;-77
2022/11/25 13:16:36;;;;;;;115.13;53.63;;;;;;;;;;4928724;29;20306;-77
2022/11/25 13:19:08;;;;;;;136.07;56.63;;;;;;;;;;4926124;29;20198;-79
2022/11/25 13:21:34;;;;;;;118.50;56.27;;;;;;;;;;4928769;29;20194;-76
2022/11/25 13:24:00;;;;;;;104.53;49.30;;;;;;;;;;4910243;29;20292;-76
2022/11/25 13:26:33;;;;;;;99.43;48.20;;;;;;;;;;4904382;29;20245;-77
2022/11/25 13:29:06;;;;;;;99.37;48.10;;;;;;;;;;4913441;29;20268;-75
2022/11/25 13:31:52;;;;;;;114.13;51.10;;;;;;;;;;4917919;29;20829;-75
2022/11/25 13:34:21;;;;;;;109.40;49.37;;;;;;;;;;4914661;29;20186;-75
2022/11/25 13:36:48;;;;;;;111.03;49.50;;;;;;;;;;4918432;29;20178;-76
2022/11/25 13:39:16;;;;;;;99.17;49.17;;;;;;;;;;4910439;29;20194;-75
2022/11/25 13:41:46;;;;;;;110.57;48.87;;;;;;;;;;4928795;29;20194;-75
2022/11/25 13:44:18;;;;;;;106.97;48.40;;;;;;;;;;4928993;29;20743;-74
2022/11/25 13:46:44;;;;;;;92.57;46.20;;;;;;;;;;4924856;29;20321;-77
2022/11/25 13:49:39;;;;;;;132.37;52.07;;;;;;;;;;4929353;29;20306;-77
2022/11/25 13:52:22;;;;;;;111.57;49.70;;;;;;;;;;4897624;29;20193;-78
2022/11/25 13:54:53;;;;;;;103.33;46.33;;;;;;;;;;5009081;28;20174;-77
2022/11/25 13:57:39;;;;;;;103.90;48.53;;;;;;;;;;5011304;28;20190;-78
2022/11/25 14:00:05;;;;;;;108.67;48.90;;;;;;;;;;4995207;28;20198;-77
2022/11/25 14:02:36;;;;;;;134.17;55.00;;;;;;;;;;5009106;28;20187;-75
2022/11/25 14:05:18;;;;;;;102.60;47.63;;;;;;;;;;5008789;28;20743;-76
2022/11/25 14:07:50;;;;;;;107.17;51.43;;;;;;;;;;5008549;28;20190;-75
2022/11/25 14:10:28;;;;;;;134.10;62.43;;;;;;;;;;5009558;28;21546;-76
2022/11/25 14:13:06;;;;;;;127.13;65.87;;;;;;;;;;5010723;28;20199;-76
2022/11/25 14:15:50;;;;;;;143.00;66.17;;;;;;;;;;4983625;28;20525;-76
2022/11/25 14:18:19;;;;;;;141.73;62.87;;;;;;;;;;4992305;28;20253;-76
2022/11/25 14:20:54;;;;;;;148.33;64.53;;;;;;;;;;5012220;28;20245;-76
2022/11/25 14:23:29;;;;;;;134.60;61.37;;;;;;;;;;5009811;28;20234;-76
2022/11/25 14:25:57;;;;;;;114.67;55.37;;;;;;;;;;5006743;28;20294;-75
2022/11/25 14:28:26;;;;;;;107.83;55.47;;;;;;;;;;4995411;28;20187;-77
2022/11/25 14:30:54;;;;;;;133.50;60.70;;;;;;;;;;4997759;28;20242;-77